Time;durP1;ratioP1;P1;durP2;ratioP2;P2;SDS_P1;SDS_P2;PMS_P1;PMS_P2;Temp;Humidity;BMP_temperature;BMP_pressure;BME280_temperature;BME280_humidity;BME280_pressure;Samples;Min_cycle;Max_cycle;Signal;HPM_P1;HPM_P2
2021/09/07 00:00:13;;;;;;;18.95;11.18;;;;;;;18.68;53.21;102363.06;4948316;28;124195;-62
2021/09/07 00:02:40;;;;;;;22.85;11.20;;;;;;;18.68;53.34;102357.72;4957927;28;124177;-63
2021/09/07 00:05:09;;;;;;;20.15;11.43;;;;;;;18.66;53.55;102364.97;4952057;28;114141;-62
2021/09/07 00:07:37;;;;;;;22.15;11.95;;;;;;;18.67;53.52;102353.31;4955607;28;113778;-62
2021/09/07 00:10:07;;;;;;;21.58;12.32;;;;;;;18.67;53.61;102358.69;4947234;28;124409;-62
2021/09/07 00:12:36;;;;;;;22.35;12.35;;;;;;;18.67;53.80;102356.84;4945935;28;124646;-62
2021/09/07 00:15:05;;;;;;;23.58;12.55;;;;;;;18.69;54.01;102364.81;4956504;28;114690;-63
2021/09/07 00:17:35;;;;;;;23.05;12.35;;;;;;;18.70;53.69;102358.50;4953815;28;114145;-63
2021/09/07 00:20:04;;;;;;;19.05;10.82;;;;;;;18.72;54.06;102359.25;4948140;28;123932;-62
2021/09/07 00:22:32;;;;;;;24.15;12.77;;;;;;;18.73;53.82;102355.66;4934833;28;123130;-62
2021/09/07 00:24:59;;;;;;;26.25;12.32;;;;;;;18.74;53.93;102352.03;4958827;28;115515;-63
2021/09/07 00:27:26;;;;;;;21.30;11.55;;;;;;;18.77;53.83;102345.59;4949188;28;114205;-62
2021/09/07 00:29:53;;;;;;;22.15;11.85;;;;;;;18.78;54.07;102342.84;4941581;28;122840;-62
2021/09/07 00:32:20;;;;;;;23.52;12.13;;;;;;;18.80;54.14;102338.28;4954211;28;124375;-63
2021/09/07 00:34:47;;;;;;;21.95;12.05;;;;;;;18.83;54.25;102340.78;4966659;28;114416;-62
2021/09/07 00:37:14;;;;;;;20.42;11.65;;;;;;;18.85;54.12;102336.22;4951933;28;114366;-62
2021/09/07 00:39:42;;;;;;;18.63;11.23;;;;;;;18.88;54.32;102331.63;4956764;28;124351;-62
2021/09/07 00:42:09;;;;;;;21.10;11.52;;;;;;;18.89;54.28;102333.34;4959121;28;124656;-62
2021/09/07 00:44:36;;;;;;;19.27;11.10;;;;;;;18.92;54.39;102327.81;4950217;28;114083;-63
2021/09/07 00:47:07;;;;;;;21.23;10.70;;;;;;;18.95;54.36;102322.25;4952439;28;112761;-62
2021/09/07 00:49:38;;;;;;;22.60;11.75;;;;;;;18.97;54.66;102320.38;4947966;28;124118;-62
2021/09/07 00:52:06;;;;;;;21.15;11.10;;;;;;;18.98;54.45;102327.44;4949646;28;124681;-62
2021/09/07 00:54:37;;;;;;;21.33;11.50;;;;;;;19.01;54.62;102327.28;4951840;28;113978;-63
2021/09/07 00:57:07;;;;;;;21.48;11.68;;;;;;;19.01;54.42;102321.91;4953007;28;114067;-62
2021/09/07 00:59:35;;;;;;;21.77;12.15;;;;;;;19.04;54.60;102321.72;4949337;28;124671;-63
2021/09/07 01:02:04;;;;;;;19.92;12.32;;;;;;;19.05;54.66;102318.09;4950541;28;123108;-62
2021/09/07 01:04:33;;;;;;;24.25;13.60;;;;;;;19.07;54.67;102302.75;4951750;28;114749;-62
2021/09/07 01:07:04;;;;;;;21.35;11.98;;;;;;;19.09;54.97;102308.91;4948524;28;114774;-62
2021/09/07 01:09:31;;;;;;;23.10;12.05;;;;;;;19.09;54.95;102308.91;4949719;28;124487;-62
2021/09/07 01:11:59;;;;;;;20.95;11.05;;;;;;;19.14;54.81;102305.97;4950484;28;124125;-62
2021/09/07 01:14:38;;;;;;;21.67;11.68;;;;;;;19.15;54.69;102303.16;4969775;28;115388;-62
2021/09/07 01:17:17;;;;;;;22.02;11.07;;;;;;;19.17;54.88;102305.78;4951381;28;114874;-62
2021/09/07 01:19:48;;;;;;;15.90;9.68;;;;;;;19.18;54.67;102308.38;4960314;28;124157;-62
2021/09/07 01:22:18;;;;;;;20.05;11.50;;;;;;;19.19;54.78;102304.75;4962950;28;123994;-63
2021/09/07 01:24:47;;;;;;;17.85;9.55;;;;;;;19.21;54.68;102312.69;4958127;28;114572;-64
2021/09/07 01:27:15;;;;;;;18.27;11.10;;;;;;;19.21;54.71;102308.22;4957538;28;114441;-63
2021/09/07 01:29:43;;;;;;;22.52;11.48;;;;;;;19.21;54.62;102313.59;4964003;28;123809;-63
2021/09/07 01:32:11;;;;;;;22.30;11.13;;;;;;;19.23;54.73;102305.41;4958409;28;124762;-63
2021/09/07 01:34:39;;;;;;;20.15;11.45;;;;;;;19.23;54.56;102303.63;4959200;28;114650;-63
2021/09/07 01:37:08;;;;;;;18.92;10.52;;;;;;;19.23;54.61;102306.31;4956558;28;114063;-63
2021/09/07 01:39:38;;;;;;;20.10;10.98;;;;;;;19.22;54.71;102304.56;4955494;28;124807;-63
2021/09/07 01:42:07;;;;;;;17.55;10.60;;;;;;;19.23;54.57;102295.56;4950182;28;124490;-62
2021/09/07 01:44:38;;;;;;;17.48;10.23;;;;;;;19.22;54.63;102301.88;4955095;28;114291;-63
2021/09/07 01:47:08;;;;;;;18.90;10.85;;;;;;;19.24;54.66;102307.16;4952947;28;113695;-62
2021/09/07 01:49:36;;;;;;;18.35;10.15;;;;;;;19.22;54.67;102299.19;4947634;28;123686;-62
2021/09/07 01:52:22;;;;;;;16.65;10.55;;;;;;;19.22;54.68;102309.94;4964628;28;124194;-62
2021/09/07 01:54:49;;;;;;;20.20;10.90;;;;;;;19.21;54.54;102308.22;4951638;28;114592;-62
2021/09/07 01:57:18;;;;;;;19.00;10.77;;;;;;;19.20;54.36;102311.84;4951121;28;114062;-62
2021/09/07 01:59:46;;;;;;;17.83;10.70;;;;;;;19.19;54.78;102312.81;4958104;28;123689;-62
2021/09/07 02:02:13;;;;;;;21.27;10.90;;;;;;;19.17;54.72;102312.00;4957573;28;123881;-62
2021/09/07 02:04:45;;;;;;;19.15;10.98;;;;;;;19.13;54.80;102315.81;4961895;28;115278;-62
2021/09/07 02:07:13;;;;;;;21.60;11.05;;;;;;;19.07;54.82;102321.56;4959603;28;115121;-62
2021/09/07 02:09:41;;;;;;;16.95;10.27;;;;;;;19.04;55.03;102321.72;4964985;28;124825;-63
2021/09/07 02:12:11;;;;;;;19.90;10.93;;;;;;;18.99;54.74;102323.81;4952926;28;124010;-62
2021/09/07 02:14:39;;;;;;;19.17;11.15;;;;;;;18.95;54.99;102322.25;4957323;28;114831;-62
2021/09/07 02:17:07;;;;;;;16.25;9.45;;;;;;;18.90;55.24;102325.22;4956191;28;114304;-62
2021/09/07 02:19:34;;;;;;;22.42;11.70;;;;;;;18.88;55.29;102326.25;4958534;28;124210;-62
2021/09/07 02:22:02;;;;;;;19.65;11.00;;;;;;;18.84;55.24;102331.78;4959571;28;124724;-62
2021/09/07 02:24:29;;;;;;;20.40;10.82;;;;;;;18.82;55.26;102328.31;4955578;28;114609;-62
2021/09/07 02:26:56;;;;;;;18.83;10.60;;;;;;;18.81;55.29;102331.09;4954654;28;113932;-62
2021/09/07 02:29:24;;;;;;;17.70;10.48;;;;;;;18.78;55.22;102320.47;4959035;28;125085;-62
2021/09/07 02:31:51;;;;;;;18.77;10.63;;;;;;;18.76;55.04;102317.91;4962555;28;124454;-62
2021/09/07 02:34:19;;;;;;;19.58;10.43;;;;;;;18.72;54.96;102316.31;4960904;28;114554;-62
2021/09/07 02:36:47;;;;;;;19.20;11.00;;;;;;;18.69;55.19;102311.16;4950045;28;112996;-63
2021/09/07 02:39:15;;;;;;;17.42;10.65;;;;;;;18.66;55.29;102319.34;4960692;28;123134;-62
2021/09/07 02:41:45;;;;;;;19.67;10.48;;;;;;;18.64;55.25;102323.94;4959265;28;124178;-62
2021/09/07 02:44:12;;;;;;;16.65;9.57;;;;;;;18.61;55.14;102318.75;4953717;28;114934;-63
2021/09/07 02:46:39;;;;;;;18.25;10.35;;;;;;;18.58;55.28;102313.56;4956617;28;114206;-63
2021/09/07 02:49:06;;;;;;;17.83;9.93;;;;;;;18.57;55.15;102317.19;4951478;28;124348;-63
2021/09/07 02:51:35;;;;;;;16.65;9.98;;;;;;;18.56;55.27;102315.47;4963300;28;124256;-62
2021/09/07 02:54:04;;;;;;;19.83;10.38;;;;;;;18.55;55.50;102311.03;4962785;28;115312;-62
2021/09/07 02:56:32;;;;;;;21.90;11.35;;;;;;;18.53;55.54;102304.88;4960272;28;116054;-62
2021/09/07 02:59:00;;;;;;;18.63;11.52;;;;;;;18.51;55.49;102290.69;4956359;28;124052;-62
2021/09/07 03:01:28;;;;;;;20.13;11.57;;;;;;;18.51;55.83;102301.44;4979532;28;123317;-62
2021/09/07 03:03:56;;;;;;;18.73;10.77;;;;;;;18.49;55.83;102299.69;4965369;28;113912;-62
2021/09/07 03:06:23;;;;;;;18.77;10.25;;;;;;;18.51;55.83;102301.44;4958051;28;112880;-62
2021/09/07 03:08:51;;;;;;;18.77;11.43;;;;;;;18.51;56.09;102296.06;4959910;28;124354;-62
2021/09/07 03:11:18;;;;;;;22.02;11.27;;;;;;;18.52;56.07;102298.66;4964451;28;124658;-62
2021/09/07 03:13:47;;;;;;;21.42;11.68;;;;;;;18.53;56.11;102294.16;4955715;28;113452;-62
2021/09/07 03:16:14;;;;;;;21.65;11.60;;;;;;;18.55;56.12;102292.25;4967770;28;114563;-62
2021/09/07 03:18:42;;;;;;;20.50;11.57;;;;;;;18.56;56.24;102283.28;4964402;28;124121;-62
2021/09/07 03:21:10;;;;;;;19.83;11.80;;;;;;;18.54;56.46;102290.53;4959668;28;124062;-63
2021/09/07 03:23:37;;;;;;;23.85;11.93;;;;;;;18.55;56.56;102282.38;4960068;28;114008;-63
2021/09/07 03:26:05;;;;;;;19.85;11.20;;;;;;;18.57;56.62;102279.63;4963966;28;114256;-63
2021/09/07 03:28:32;;;;;;;19.25;10.93;;;;;;;18.57;56.48;102275.13;4961851;28;124070;-63
2021/09/07 03:31:01;;;;;;;18.48;10.70;;;;;;;18.61;56.75;102281.16;4961310;28;124769;-63
2021/09/07 03:33:29;;;;;;;18.70;11.02;;;;;;;18.63;56.53;102279.28;4958328;28;113345;-63
2021/09/07 03:35:58;;;;;;;21.13;10.80;;;;;;;18.66;56.69;102279.09;4957546;28;114278;-63
2021/09/07 03:38:25;;;;;;;20.02;10.82;;;;;;;18.68;56.79;102282.56;4955271;28;124104;-63
2021/09/07 03:40:54;;;;;;;17.70;10.13;;;;;;;18.70;56.69;102280.66;4960575;28;124213;-63
2021/09/07 03:43:21;;;;;;;17.20;9.38;;;;;;;18.73;56.69;102285.84;4959566;28;115463;-63
2021/09/07 03:45:48;;;;;;;18.88;10.07;;;;;;;18.75;56.69;102283.94;4964331;28;114842;-63
2021/09/07 03:48:16;;;;;;;18.38;10.65;;;;;;;18.77;56.70;102276.69;4960369;28;124221;-63
2021/09/07 03:50:44;;;;;;;20.10;10.70;;;;;;;18.79;56.60;102285.50;4958138;28;123020;-63
2021/09/07 03:53:13;;;;;;;19.98;10.90;;;;;;;18.80;56.60;102281.91;4954415;28;114824;-63
2021/09/07 03:55:41;;;;;;;19.25;10.88;;;;;;;18.81;56.73;102278.25;4988073;22;114324;-63
2021/09/07 03:58:08;;;;;;;17.35;10.45;;;;;;;18.84;56.62;102277.25;4969146;28;124912;-66
2021/09/07 04:00:36;;;;;;;19.30;10.27;;;;;;;18.85;56.62;102285.22;4971303;28;124198;-66
2021/09/07 04:03:15;;;;;;;22.25;11.13;;;;;;;18.84;56.88;102283.47;4972904;28;114410;-66
2021/09/07 04:05:43;;;;;;;19.75;10.60;;;;;;;18.86;56.81;102280.69;4972338;28;114143;-66
2021/09/07 04:08:11;;;;;;;20.65;11.75;;;;;;;18.86;57.02;102292.28;4962980;28;124465;-66
2021/09/07 04:10:39;;;;;;;22.45;12.15;;;;;;;18.83;57.00;102287.09;4964116;28;124639;-66
2021/09/07 04:13:07;;;;;;;19.35;11.05;;;;;;;18.84;56.91;102287.97;4965658;28;115000;-66
2021/09/07 04:15:34;;;;;;;18.40;11.02;;;;;;;18.84;56.96;102283.47;4971926;28;114045;-66
2021/09/07 04:18:02;;;;;;;19.17;11.63;;;;;;;18.86;56.97;102281.56;4966904;28;124755;-66
2021/09/07 04:20:30;;;;;;;19.30;10.98;;;;;;;18.89;57.00;102285.88;4965476;28;123006;-66
2021/09/07 04:22:58;;;;;;;19.50;11.85;;;;;;;18.90;56.97;102276.03;4967451;28;114382;-66
2021/09/07 04:25:25;;;;;;;19.70;11.60;;;;;;;18.92;57.04;102274.13;4968306;28;114779;-66
2021/09/07 04:27:53;;;;;;;22.13;12.35;;;;;;;18.94;57.01;102282.94;4969664;28;124394;-66
2021/09/07 04:30:20;;;;;;;20.95;11.90;;;;;;;18.97;56.98;102282.78;4970973;28;124644;-66
2021/09/07 04:32:48;;;;;;;24.15;11.88;;;;;;;18.98;57.02;102284.50;4963607;28;116007;-65
2021/09/07 04:35:15;;;;;;;21.38;12.13;;;;;;;18.99;57.13;102283.56;4970474;28;115094;-65
2021/09/07 04:37:42;;;;;;;18.92;11.75;;;;;;;19.00;57.45;102283.44;4964698;28;124372;-65
2021/09/07 04:40:10;;;;;;;21.20;11.93;;;;;;;19.01;56.97;102273.59;4967543;28;124045;-65
2021/09/07 04:42:38;;;;;;;23.40;11.57;;;;;;;19.01;57.08;102289.69;4964647;28;114418;-66
2021/09/07 04:45:06;;;;;;;21.45;11.77;;;;;;;19.02;57.03;102291.41;4968937;28;114433;-66
2021/09/07 04:47:36;;;;;;;23.25;12.75;;;;;;;19.01;57.11;102293.25;4966572;28;124221;-66
2021/09/07 04:50:04;;;;;;;21.58;11.80;;;;;;;19.01;56.87;102292.38;4963812;28;124170;-66
2021/09/07 04:52:32;;;;;;;19.67;11.98;;;;;;;19.00;56.88;102298.69;4962402;28;115072;-66
2021/09/07 04:54:59;;;;;;;22.73;12.18;;;;;;;18.98;56.98;102287.19;4969433;28;113856;-66
2021/09/07 04:57:26;;;;;;;21.67;12.52;;;;;;;18.98;56.96;102295.22;4967866;28;124097;-66
2021/09/07 04:59:53;;;;;;;20.38;11.75;;;;;;;18.97;57.09;102293.53;4970696;28;124262;-66
2021/09/07 05:02:20;;;;;;;23.30;12.32;;;;;;;18.97;56.74;102296.22;4965290;28;114261;-66
2021/09/07 05:04:47;;;;;;;24.08;12.80;;;;;;;18.95;56.68;102295.41;4968882;28;114779;-66
2021/09/07 05:07:14;;;;;;;23.92;12.27;;;;;;;18.94;56.81;102293.69;4969118;28;124290;-66
2021/09/07 05:09:42;;;;;;;21.65;12.43;;;;;;;18.91;56.98;102293.84;4965412;28;124561;-66
2021/09/07 05:12:09;;;;;;;22.33;12.00;;;;;;;18.91;57.17;102293.84;4962994;28;114289;-66
2021/09/07 05:14:38;;;;;;;22.73;12.02;;;;;;;18.89;57.04;102296.63;4964211;28;113844;-66
2021/09/07 05:17:05;;;;;;;20.05;11.38;;;;;;;18.89;57.21;102303.81;4966291;28;126095;-66
2021/09/07 05:19:32;;;;;;;22.13;12.55;;;;;;;18.88;57.10;102294.91;4952963;28;122886;-66
2021/09/07 05:21:59;;;;;;;25.15;12.80;;;;;;;18.88;57.22;102304.78;4963675;28;115117;-66
2021/09/07 05:24:26;;;;;;;23.40;12.55;;;;;;;18.86;57.14;102303.03;4958824;28;115100;-66
2021/09/07 05:26:54;;;;;;;23.25;12.07;;;;;;;18.85;57.20;102301.31;4962765;28;124269;-66
2021/09/07 05:29:21;;;;;;;23.58;12.43;;;;;;;18.85;57.08;102301.31;4955581;28;124302;-66
2021/09/07 05:31:48;;;;;;;27.35;12.10;;;;;;;18.85;57.02;102295.06;4959940;28;114078;-66
2021/09/07 05:34:16;;;;;;;22.92;11.88;;;;;;;18.84;57.19;102307.63;4953761;28;114198;-66
2021/09/07 05:36:44;;;;;;;23.80;12.15;;;;;;;18.83;57.16;102307.72;4962836;28;124820;-66
2021/09/07 05:39:11;;;;;;;26.02;12.00;;;;;;;18.83;57.18;102303.19;4968284;28;123805;-66
2021/09/07 05:41:38;;;;;;;27.73;12.07;;;;;;;18.83;57.25;102308.56;4968762;28;114037;-66
2021/09/07 05:44:05;;;;;;;26.58;13.38;;;;;;;18.83;57.23;102308.56;4963966;28;114636;-66
2021/09/07 05:46:34;;;;;;;32.00;12.80;;;;;;;18.82;57.33;102312.22;4970355;28;123756;-66
2021/09/07 05:49:01;;;;;;;27.23;12.27;;;;;;;18.82;57.44;102309.53;4968179;28;123928;-66
2021/09/07 05:51:28;;;;;;;30.83;12.20;;;;;;;18.83;57.29;102313.94;4968894;28;114565;-66
2021/09/07 05:53:55;;;;;;;23.20;11.88;;;;;;;18.83;57.49;102313.94;4964743;28;114607;-66
2021/09/07 05:56:23;;;;;;;29.23;12.98;;;;;;;18.83;57.46;102319.31;4969780;28;123159;-66
2021/09/07 05:58:51;;;;;;;26.67;12.32;;;;;;;18.84;57.41;102318.38;4963847;28;123819;-66
2021/09/07 06:01:18;;;;;;;26.00;13.13;;;;;;;18.88;57.63;102320.88;4964193;28;114558;-66
2021/09/07 06:03:45;;;;;;;22.42;11.70;;;;;;;18.90;57.48;102321.66;4959536;28;114215;-66
2021/09/07 06:06:13;;;;;;;20.20;11.60;;;;;;;18.92;57.50;102325.13;4967788;28;124061;-66
2021/09/07 06:08:41;;;;;;;23.17;12.05;;;;;;;18.96;57.54;102324.00;4965858;28;124734;-66
2021/09/07 06:11:09;;;;;;;22.88;12.18;;;;;;;18.98;57.74;102322.09;4958209;28;115036;-66
2021/09/07 06:13:36;;;;;;;23.73;13.02;;;;;;;19.01;57.73;102321.91;4958093;28;115590;-66
2021/09/07 06:16:04;;;;;;;21.98;12.48;;;;;;;19.04;57.88;102321.72;4957080;28;124150;-65
2021/09/07 06:18:31;;;;;;;23.42;12.75;;;;;;;19.08;57.54;102323.31;4967899;28;123767;-66
2021/09/07 06:20:58;;;;;;;22.98;12.88;;;;;;;19.12;57.76;102330.22;4956742;28;114452;-65
2021/09/07 06:23:27;;;;;;;23.63;12.75;;;;;;;19.17;57.87;102317.38;4968205;28;113956;-66
2021/09/07 06:25:58;;;;;;;30.67;13.07;;;;;;;19.23;58.11;102317.03;4966730;28;123910;-66
2021/09/07 06:28:26;;;;;;;30.70;13.73;;;;;;;19.31;58.24;102319.28;4961880;28;123741;-65
2021/09/07 06:30:54;;;;;;;28.10;13.90;;;;;;;19.37;58.20;102318.06;4968269;28;114456;-66
2021/09/07 06:33:21;;;;;;;26.15;12.75;;;;;;;19.43;58.25;102323.91;4969572;28;114057;-66
2021/09/07 06:35:49;;;;;;;29.58;14.95;;;;;;;19.49;58.31;102322.69;4964243;28;124219;-66
2021/09/07 06:38:16;;;;;;;23.98;13.68;;;;;;;19.56;58.32;102332.13;4957093;28;123912;-66
2021/09/07 06:40:43;;;;;;;26.45;14.48;;;;;;;19.66;58.43;102329.75;4967920;28;114340;-66
2021/09/07 06:43:10;;;;;;;25.40;14.02;;;;;;;19.75;58.41;102328.38;4966690;28;112988;-66
2021/09/07 06:45:37;;;;;;;25.35;14.95;;;;;;;19.84;58.53;102325.13;4969376;28;123960;-66
2021/09/07 06:48:04;;;;;;;31.63;15.50;;;;;;;19.95;58.36;102325.34;4954576;28;124290;-66
2021/09/07 06:50:32;;;;;;;28.77;15.32;;;;;;;20.05;58.30;102324.78;4957041;28;115206;-66
2021/09/07 06:53:00;;;;;;;25.17;14.70;;;;;;;20.15;58.58;102326.78;4962967;28;114358;-66
2021/09/07 06:55:27;;;;;;;27.70;14.95;;;;;;;20.29;58.57;102328.63;4968808;28;124903;-66
2021/09/07 06:57:54;;;;;;;27.08;15.18;;;;;;;20.42;58.56;102326.91;4973235;28;122543;-65
2021/09/07 07:00:21;;;;;;;28.48;15.98;;;;;;;20.57;58.30;102332.28;4970124;28;115569;-69
2021/09/07 07:02:49;;;;;;;29.23;15.65;;;;;;;20.64;58.17;102332.78;4971776;28;115018;-68
2021/09/07 07:05:16;;;;;;;27.77;14.93;;;;;;;20.69;58.17;102326.13;4972050;28;124091;-69
2021/09/07 07:07:43;;;;;;;27.55;15.27;;;;;;;20.74;58.12;102318.63;4969344;28;124475;-68
2021/09/07 07:10:11;;;;;;;27.15;15.10;;;;;;;20.79;57.99;102316.53;4971385;28;114531;-68
2021/09/07 07:12:40;;;;;;;28.27;15.27;;;;;;;20.86;58.20;102321.50;4965023;28;114727;-68
2021/09/07 07:15:08;;;;;;;27.58;16.00;;;;;;;20.95;58.21;102326.28;4969211;28;124101;-69
2021/09/07 07:17:35;;;;;;;28.77;16.00;;;;;;;21.01;57.92;102325.88;4964115;28;122939;-70
2021/09/07 07:20:02;;;;;;;27.27;15.20;;;;;;;21.10;58.09;102333.34;4969142;28;114425;-70
2021/09/07 07:22:30;;;;;;;28.90;15.60;;;;;;;21.17;58.14;102326.59;4966419;28;114171;-70
2021/09/07 07:24:58;;;;;;;29.73;15.73;;;;;;;21.29;57.98;102329.44;4958173;28;123985;-69
2021/09/07 07:27:25;;;;;;;30.17;16.02;;;;;;;21.41;57.94;102328.59;4961249;28;124160;-69
2021/09/07 07:29:52;;;;;;;26.98;15.68;;;;;;;21.51;57.97;102329.75;4967933;28;114294;-69
2021/09/07 07:32:19;;;;;;;28.70;15.40;;;;;;;21.65;58.00;102336.91;4962199;28;113824;-70
2021/09/07 07:34:46;;;;;;;29.30;16.27;;;;;;;21.81;57.76;102336.69;4986441;28;122918;-70
2021/09/07 07:37:13;;;;;;;30.13;15.38;;;;;;;21.94;57.64;102337.59;4960705;28;124535;-69
2021/09/07 07:39:41;;;;;;;28.35;16.40;;;;;;;22.07;57.35;102336.72;4957742;28;114408;-68
2021/09/07 07:42:08;;;;;;;30.83;16.92;;;;;;;22.17;57.04;102340.53;4958910;28;114507;-69
2021/09/07 07:44:35;;;;;;;29.65;17.23;;;;;;;22.27;56.97;102343.47;4968460;28;124162;-68
2021/09/07 07:47:02;;;;;;;33.20;17.27;;;;;;;22.35;57.08;102339.22;4956644;28;124159;-69
2021/09/07 07:49:33;;;;;;;30.17;15.80;;;;;;;22.47;56.88;102344.72;4958472;28;114910;-69
2021/09/07 07:52:00;;;;;;;29.85;16.52;;;;;;;22.61;56.81;102347.31;4967184;28;114936;-69
2021/09/07 07:54:27;;;;;;;30.00;17.13;;;;;;;22.72;56.91;102350.09;4973761;28;123645;-69
2021/09/07 07:56:54;;;;;;;30.48;17.35;;;;;;;22.86;56.44;102345.50;4965932;28;123924;-69
2021/09/07 07:59:21;;;;;;;30.23;16.80;;;;;;;22.96;56.36;102346.53;4969856;28;114711;-69
2021/09/07 08:01:49;;;;;;;31.23;17.52;;;;;;;23.05;56.06;102345.91;4965388;28;114615;-70
2021/09/07 08:04:16;;;;;;;30.83;17.25;;;;;;;23.14;55.62;102355.19;4958482;28;124781;-70
2021/09/07 08:06:43;;;;;;;30.42;18.13;;;;;;;23.20;55.57;102359.25;4969407;28;123532;-70
2021/09/07 08:09:11;;;;;;;32.00;17.25;;;;;;;23.26;55.50;102365.09;4960889;28;114353;-70
2021/09/07 08:11:38;;;;;;;29.30;17.35;;;;;;;23.33;55.25;102360.06;4968866;28;115623;-70
2021/09/07 08:14:06;;;;;;;29.95;17.35;;;;;;;23.39;55.19;102365.00;4969263;28;123657;-69
2021/09/07 08:16:34;;;;;;;31.58;16.95;;;;;;;23.46;55.29;102366.28;4972197;28;124529;-69
2021/09/07 08:19:01;;;;;;;35.15;18.50;;;;;;;23.52;55.09;102360.38;4971025;28;114322;-69
2021/09/07 08:21:29;;;;;;;33.10;17.48;;;;;;;23.61;54.93;102363.38;4967403;28;114889;-69
2021/09/07 08:23:57;;;;;;;34.13;18.40;;;;;;;23.70;54.92;102365.41;4966720;28;124488;-69
2021/09/07 08:26:24;;;;;;;33.10;18.45;;;;;;;23.77;54.87;102358.53;4970046;28;122914;-70
2021/09/07 08:28:51;;;;;;;35.17;18.80;;;;;;;23.84;54.71;102359.78;4967635;28;114784;-70
2021/09/07 08:31:19;;;;;;;31.40;18.13;;;;;;;23.94;54.66;102369.91;4969619;28;112265;-70
2021/09/07 08:33:46;;;;;;;36.03;19.73;;;;;;;24.03;54.69;102364.63;4971690;28;124761;-70
2021/09/07 08:36:13;;;;;;;38.50;18.98;;;;;;;24.12;54.51;102352.22;4972806;28;124255;-70
2021/09/07 08:38:41;;;;;;;34.63;18.88;;;;;;;24.23;54.09;102364.94;4971402;28;114298;-70
2021/09/07 08:41:08;;;;;;;32.53;17.92;;;;;;;24.34;53.94;102361.38;4968950;28;114144;-70
2021/09/07 08:43:38;;;;;;;35.92;18.70;;;;;;;24.45;53.88;102353.25;4964186;28;123816;-70
2021/09/07 08:46:05;;;;;;;33.95;19.60;;;;;;;24.54;53.27;102363.34;4970134;28;124610;-70
2021/09/07 08:48:33;;;;;;;35.78;18.85;;;;;;;24.57;53.48;102357.69;4956702;28;114079;-70
2021/09/07 08:51:00;;;;;;;31.95;19.00;;;;;;;24.62;52.90;102360.91;4972447;28;114063;-70
2021/09/07 08:53:29;;;;;;;32.67;18.75;;;;;;;24.70;52.78;102359.44;4970053;28;124067;-70
2021/09/07 08:55:56;;;;;;;30.25;17.65;;;;;;;24.73;52.66;102356.47;4973040;28;123950;-71
2021/09/07 08:58:23;;;;;;;32.83;18.25;;;;;;;24.80;52.38;102355.81;4955828;28;114910;-70
2021/09/07 09:00:50;;;;;;;30.30;17.85;;;;;;;24.87;52.41;102359.75;4959701;28;113963;-70
2021/09/07 09:03:18;;;;;;;33.70;17.98;;;;;;;24.95;51.72;102359.13;4972621;28;124218;-71
2021/09/07 09:05:49;;;;;;;30.65;16.83;;;;;;;25.02;51.84;102363.06;4972518;28;124801;-70
2021/09/07 09:08:17;;;;;;;28.80;17.27;;;;;;;25.12;51.91;102363.16;4963990;28;113727;-70
2021/09/07 09:10:46;;;;;;;34.03;19.20;;;;;;;25.22;51.59;102363.25;4962539;28;114168;-70
2021/09/07 09:13:15;;;;;;;30.85;17.98;;;;;;;25.32;51.61;102371.53;4958869;28;124118;-70
2021/09/07 09:16:04;;;;;;;33.33;17.52;;;;;;;25.43;51.80;102366.91;4964408;28;123755;-70
2021/09/07 09:18:33;;;;;;;28.73;16.23;;;;;;;25.59;51.02;102362.91;4958783;28;114110;-70
2021/09/07 09:21:20;;;;;;;27.40;16.45;;;;;;;25.70;50.47;102362.00;4968599;28;114054;-69
2021/09/07 09:24:19;;;;;;;26.55;16.02;;;;;;;25.79;50.19;102359.34;4971547;28;124432;-70
2021/09/07 09:26:52;;;;;;;27.05;15.73;;;;;;;25.91;50.16;102364.72;4972041;28;124350;-69
2021/09/07 09:29:27;;;;;;;27.38;15.52;;;;;;;26.01;49.62;102360.22;4966654;28;115389;-70
2021/09/07 09:31:56;;;;;;;23.20;14.13;;;;;;;26.09;49.15;102363.16;4970341;28;114381;-69
2021/09/07 09:34:24;;;;;;;24.33;14.30;;;;;;;26.21;48.79;102351.19;4969246;28;124791;-69
2021/09/07 09:37:12;;;;;;;25.77;13.93;;;;;;;26.30;48.42;102354.13;4967069;28;122827;-69
2021/09/07 09:39:45;;;;;;;21.92;13.05;;;;;;;26.36;47.57;102348.13;4967467;28;114283;-70
2021/09/07 09:42:28;;;;;;;25.92;13.63;;;;;;;26.42;47.39;102353.00;4964506;28;115104;-69
2021/09/07 09:45:08;;;;;;;21.95;13.07;;;;;;;26.46;47.50;102354.44;4966209;28;125098;-70
2021/09/07 09:47:41;;;;;;;20.40;12.88;;;;;;;26.52;47.35;102353.94;4976462;28;124053;-70
2021/09/07 09:50:11;;;;;;;24.33;13.52;;;;;;;26.57;47.13;102357.06;4956564;28;114401;-69
2021/09/07 09:52:45;;;;;;;23.25;13.48;;;;;;;26.64;46.58;102356.56;4965718;28;114500;-69
2021/09/07 09:55:14;;;;;;;21.80;13.05;;;;;;;26.73;47.04;102351.16;4967102;28;124849;-70
2021/09/07 09:57:42;;;;;;;23.40;13.48;;;;;;;26.84;46.53;102352.03;4978065;28;124122;-70
2021/09/07 10:00:11;;;;;;;25.25;13.52;;;;;;;26.91;46.26;102343.19;4964979;28;115052;-70
2021/09/07 10:02:43;;;;;;;22.38;13.00;;;;;;;26.96;45.68;102349.06;4966382;28;113969;-70
2021/09/07 10:05:13;;;;;;;23.27;13.77;;;;;;;27.00;45.86;102347.78;4970045;28;124760;-70
2021/09/07 10:08:00;;;;;;;19.52;12.73;;;;;;;27.08;45.40;102338.06;4968426;28;123877;-70
2021/09/07 10:10:27;;;;;;;23.30;12.98;;;;;;;27.12;45.06;102340.34;4962998;28;114367;-69
2021/09/07 10:12:58;;;;;;;23.40;12.95;;;;;;;27.18;45.05;102334.38;4988415;22;114007;-73
2021/09/07 10:15:31;;;;;;;20.95;12.88;;;;;;;27.24;44.38;102332.94;4959385;28;123290;-74
2021/09/07 10:24:02;;;;;;;19.98;12.23;;;;;;;27.58;44.35;102346.13;4943954;28;114799;-73
2021/09/07 10:26:44;;;;;;;20.88;12.40;;;;;;;27.67;44.13;102338.94;4948577;28;123265;-72
2021/09/07 10:29:29;;;;;;;20.45;12.02;;;;;;;27.76;43.72;102333.50;4941443;28;123660;-73
2021/09/07 10:31:57;;;;;;;18.67;11.45;;;;;;;27.84;44.04;102345.50;4948964;28;113178;-74
2021/09/07 10:34:28;;;;;;;19.45;11.45;;;;;;;27.91;44.00;102335.78;4963588;28;113131;-73
2021/09/07 10:37:00;;;;;;;19.30;11.98;;;;;;;28.02;43.97;102332.91;4942353;28;125171;-74
2021/09/07 10:39:33;;;;;;;15.90;10.88;;;;;;;28.17;43.63;102324.25;4944495;28;123742;-76
2021/09/07 10:42:02;;;;;;;20.55;11.73;;;;;;;28.28;42.85;102321.34;4943969;28;114966;-73
2021/09/07 10:44:34;;;;;;;19.95;12.02;;;;;;;28.38;42.97;102322.16;4962278;28;113784;-73
2021/09/07 10:47:04;;;;;;;19.15;11.07;;;;;;;28.48;42.70;102317.53;4932158;28;123016;-73
2021/09/07 10:49:37;;;;;;;18.95;10.80;;;;;;;28.60;42.14;102309.19;4965125;28;121722;-74
2021/09/07 10:52:04;;;;;;;17.23;11.32;;;;;;;28.66;42.34;102308.56;4948710;28;114126;-74
2021/09/07 10:54:32;;;;;;;17.98;10.85;;;;;;;28.70;41.87;102304.50;4965644;28;112827;-74
2021/09/07 10:57:01;;;;;;;17.58;10.73;;;;;;;28.75;41.53;102302.19;4943219;28;124863;-74
2021/09/07 10:59:46;;;;;;;18.73;11.02;;;;;;;28.80;41.98;102305.31;4949626;28;124101;-74
2021/09/07 11:02:35;;;;;;;17.13;10.45;;;;;;;28.91;42.04;102296.91;4942840;28;114292;-74
2021/09/07 11:05:11;;;;;;;19.55;10.80;;;;;;;29.00;41.37;102299.72;4955839;28;114535;-74
2021/09/07 11:07:43;;;;;;;16.30;10.95;;;;;;;29.04;41.39;102295.66;4940956;28;123831;-75
2021/09/07 11:10:13;;;;;;;19.88;11.98;;;;;;;29.10;40.72;102295.03;4942271;28;123821;-74
2021/09/07 11:12:53;;;;;;;17.83;10.80;;;;;;;29.12;41.11;102293.00;4941947;28;115956;-75
2021/09/07 11:15:23;;;;;;;16.65;10.10;;;;;;;29.18;41.09;102292.44;4949534;28;114719;-73